sensor_id;sensor_type;location;lat;lon;timestamp;P1;durP1;ratioP1;P2;durP2;ratioP2
83807;SDS011;73824;40.292;17.998;2024-03-23T00:51:48;23.60;;;9.93;;
83807;SDS011;73824;40.292;17.998;2024-03-23T00:54:14;22.63;;;9.48;;
83807;SDS011;73824;40.292;17.998;2024-03-23T00:56:40;24.80;;;10.25;;
83807;SDS011;73824;40.292;17.998;2024-03-23T00:59:06;23.97;;;9.60;;
83807;SDS011;73824;40.292;17.998;2024-03-23T01:01:31;22.13;;;9.85;;
83807;SDS011;73824;40.292;17.998;2024-03-23T01:03:57;23.90;;;9.53;;
83807;SDS011;73824;40.292;17.998;2024-03-23T01:06:22;23.30;;;9.90;;
83807;SDS011;73824;40.292;17.998;2024-03-23T01:08:48;22.73;;;9.75;;
83807;SDS011;73824;40.292;17.998;2024-03-23T01:11:17;20.93;;;8.77;;
83807;SDS011;73824;40.292;17.998;2024-03-23T01:13:43;21.05;;;8.80;;
83807;SDS011;73824;40.292;17.998;2024-03-23T01:16:08;19.17;;;8.20;;
83807;SDS011;73824;40.292;17.998;2024-03-23T01:18:34;21.58;;;9.48;;
83807;SDS011;73824;40.292;17.998;2024-03-23T01:21:00;22.50;;;8.70;;
83807;SDS011;73824;40.292;17.998;2024-03-23T01:23:25;21.13;;;8.70;;
83807;SDS011;73824;40.292;17.998;2024-03-23T01:25:51;20.50;;;8.27;;
83807;SDS011;73824;40.292;17.998;2024-03-23T01:28:18;19.77;;;7.97;;
83807;SDS011;73824;40.292;17.998;2024-03-23T01:30:44;19.13;;;7.57;;
83807;SDS011;73824;40.292;17.998;2024-03-23T01:33:09;16.40;;;7.43;;
83807;SDS011;73824;40.292;17.998;2024-03-23T01:35:35;17.40;;;7.47;;
83807;SDS011;73824;40.292;17.998;2024-03-23T01:38:01;17.83;;;7.30;;
83807;SDS011;73824;40.292;17.998;2024-03-23T01:40:26;16.67;;;7.18;;
83807;SDS011;73824;40.292;17.998;2024-03-23T01:42:56;19.30;;;7.35;;
83807;SDS011;73824;40.292;17.998;2024-03-23T01:45:33;18.10;;;7.50;;
83807;SDS011;73824;40.292;17.998;2024-03-23T01:47:59;17.60;;;7.70;;
83807;SDS011;73824;40.292;17.998;2024-03-23T01:50:25;19.35;;;7.40;;
83807;SDS011;73824;40.292;17.998;2024-03-23T01:52:51;23.40;;;7.80;;
83807;SDS011;73824;40.292;17.998;2024-03-23T01:55:17;22.42;;;8.32;;
83807;SDS011;73824;40.292;17.998;2024-03-23T01:57:43;25.80;;;9.05;;
83807;SDS011;73824;40.292;17.998;2024-03-23T02:00:08;21.20;;;9.13;;
83807;SDS011;73824;40.292;17.998;2024-03-23T02:02:40;19.25;;;8.68;;
83807;SDS011;73824;40.292;17.998;2024-03-23T02:05:12;19.92;;;8.20;;
83807;SDS011;73824;40.292;17.998;2024-03-23T02:07:39;16.63;;;7.22;;
83807;SDS011;73824;40.292;17.998;2024-03-23T02:10:08;16.65;;;7.30;;
83807;SDS011;73824;40.292;17.998;2024-03-23T02:12:35;17.35;;;7.20;;
83807;SDS011;73824;40.292;17.998;2024-03-23T02:15:02;17.27;;;7.45;;
83807;SDS011;73824;40.292;17.998;2024-03-23T02:17:28;15.00;;;6.68;;
83807;SDS011;73824;40.292;17.998;2024-03-23T02:19:55;15.05;;;6.60;;
83807;SDS011;73824;40.292;17.998;2024-03-23T02:22:21;15.57;;;6.85;;
83807;SDS011;73824;40.292;17.998;2024-03-23T02:24:46;17.70;;;6.77;;
83807;SDS011;73824;40.292;17.998;2024-03-23T02:27:12;17.90;;;6.80;;
83807;SDS011;73824;40.292;17.998;2024-03-23T02:29:37;18.58;;;7.38;;
83807;SDS011;73824;40.292;17.998;2024-03-23T02:32:03;14.27;;;7.00;;
83807;SDS011;73824;40.292;17.998;2024-03-23T02:34:29;17.05;;;7.50;;
83807;SDS011;73824;40.292;17.998;2024-03-23T02:36:54;18.47;;;7.37;;
83807;SDS011;73824;40.292;17.998;2024-03-23T02:39:20;19.50;;;8.68;;
83807;SDS011;73824;40.292;17.998;2024-03-23T02:41:45;17.97;;;7.80;;
83807;SDS011;73824;40.292;17.998;2024-03-23T02:44:12;17.30;;;8.32;;
83807;SDS011;73824;40.292;17.998;2024-03-23T02:46:39;17.30;;;7.87;;
83807;SDS011;73824;40.292;17.998;2024-03-23T02:49:04;17.08;;;8.10;;
83807;SDS011;73824;40.292;17.998;2024-03-23T02:51:30;16.83;;;7.67;;
83807;SDS011;73824;40.292;17.998;2024-03-23T02:53:56;15.55;;;7.65;;
83807;SDS011;73824;40.292;17.998;2024-03-23T02:56:22;18.30;;;7.90;;
83807;SDS011;73824;40.292;17.998;2024-03-23T02:58:48;20.47;;;8.77;;
83807;SDS011;73824;40.292;17.998;2024-03-23T03:01:13;19.63;;;8.70;;
83807;SDS011;73824;40.292;17.998;2024-03-23T03:03:39;18.57;;;8.10;;
83807;SDS011;73824;40.292;17.998;2024-03-23T03:06:04;17.10;;;8.02;;
83807;SDS011;73824;40.292;17.998;2024-03-23T03:08:30;16.90;;;7.70;;
83807;SDS011;73824;40.292;17.998;2024-03-23T03:10:56;18.43;;;8.40;;
83807;SDS011;73824;40.292;17.998;2024-03-23T03:13:21;17.88;;;8.13;;
83807;SDS011;73824;40.292;17.998;2024-03-23T03:15:47;20.33;;;8.20;;
83807;SDS011;73824;40.292;17.998;2024-03-23T03:18:12;19.13;;;8.20;;
83807;SDS011;73824;40.292;17.998;2024-03-23T03:20:38;17.88;;;7.50;;
83807;SDS011;73824;40.292;17.998;2024-03-23T03:23:05;17.15;;;7.45;;
83807;SDS011;73824;40.292;17.998;2024-03-23T03:25:30;16.23;;;7.43;;
83807;SDS011;73824;40.292;17.998;2024-03-23T03:27:56;16.38;;;7.38;;
83807;SDS011;73824;40.292;17.998;2024-03-23T03:30:21;18.20;;;8.03;;
83807;SDS011;73824;40.292;17.998;2024-03-23T03:32:47;17.93;;;7.77;;
83807;SDS011;73824;40.292;17.998;2024-03-23T03:35:12;16.75;;;7.35;;
83807;SDS011;73824;40.292;17.998;2024-03-23T03:37:38;19.73;;;8.87;;
83807;SDS011;73824;40.292;17.998;2024-03-23T03:40:04;17.88;;;7.97;;
83807;SDS011;73824;40.292;17.998;2024-03-23T03:42:33;18.88;;;8.30;;
83807;SDS011;73824;40.292;17.998;2024-03-23T03:44:59;20.70;;;8.47;;
83807;SDS011;73824;40.292;17.998;2024-03-23T03:47:24;17.90;;;7.70;;
83807;SDS011;73824;40.292;17.998;2024-03-23T03:49:50;21.93;;;8.87;;
83807;SDS011;73824;40.292;17.998;2024-03-23T03:52:15;21.50;;;9.35;;
83807;SDS011;73824;40.292;17.998;2024-03-23T03:54:41;20.03;;;9.13;;
83807;SDS011;73824;40.292;17.998;2024-03-23T03:57:06;28.30;;;9.90;;
83807;SDS011;73824;40.292;17.998;2024-03-23T03:59:32;25.77;;;9.70;;
83807;SDS011;73824;40.292;17.998;2024-03-23T04:01:58;20.33;;;8.00;;
83807;SDS011;73824;40.292;17.998;2024-03-23T04:04:23;24.95;;;8.93;;
83807;SDS011;73824;40.292;17.998;2024-03-23T04:06:49;19.70;;;8.60;;
83807;SDS011;73824;40.292;17.998;2024-03-23T04:09:14;22.03;;;8.70;;
83807;SDS011;73824;40.292;17.998;2024-03-23T04:11:40;19.33;;;8.77;;
83807;SDS011;73824;40.292;17.998;2024-03-23T04:14:06;21.70;;;8.70;;
83807;SDS011;73824;40.292;17.998;2024-03-23T04:16:34;24.42;;;9.48;;
83807;SDS011;73824;40.292;17.998;2024-03-23T04:19:00;28.53;;;9.70;;
83807;SDS011;73824;40.292;17.998;2024-03-23T04:21:26;23.35;;;9.77;;
83807;SDS011;73824;40.292;17.998;2024-03-23T04:23:52;24.75;;;10.70;;
83807;SDS011;73824;40.292;17.998;2024-03-23T04:26:17;28.00;;;11.53;;
83807;SDS011;73824;40.292;17.998;2024-03-23T04:28:43;25.97;;;10.97;;
83807;SDS011;73824;40.292;17.998;2024-03-23T04:31:09;27.20;;;11.35;;
83807;SDS011;73824;40.292;17.998;2024-03-23T04:33:35;27.10;;;11.35;;
83807;SDS011;73824;40.292;17.998;2024-03-23T04:36:01;24.50;;;10.73;;
83807;SDS011;73824;40.292;17.998;2024-03-23T04:38:27;26.02;;;11.63;;
83807;SDS011;73824;40.292;17.998;2024-03-23T04:40:53;26.77;;;10.73;;
83807;SDS011;73824;40.292;17.998;2024-03-23T04:43:21;25.60;;;11.20;;
83807;SDS011;73824;40.292;17.998;2024-03-23T04:45:47;24.20;;;10.53;;
83807;SDS011;73824;40.292;17.998;2024-03-23T04:48:12;24.17;;;10.60;;
83807;SDS011;73824;40.292;17.998;2024-03-23T04:50:38;19.87;;;8.93;;
83807;SDS011;73824;40.292;17.998;2024-03-23T04:53:03;20.47;;;8.90;;
83807;SDS011;73824;40.292;17.998;2024-03-23T04:55:29;18.70;;;8.13;;
83807;SDS011;73824;40.292;17.998;2024-03-23T04:57:56;18.47;;;7.77;;
83807;SDS011;73824;40.292;17.998;2024-03-23T05:00:21;19.75;;;8.07;;
83807;SDS011;73824;40.292;17.998;2024-03-23T05:02:48;15.67;;;7.30;;
83807;SDS011;73824;40.292;17.998;2024-03-23T05:05:14;18.55;;;8.23;;
83807;SDS011;73824;40.292;17.998;2024-03-23T05:07:39;18.92;;;8.10;;
83807;SDS011;73824;40.292;17.998;2024-03-23T05:10:06;16.75;;;7.50;;
83807;SDS011;73824;40.292;17.998;2024-03-23T05:12:36;20.15;;;7.70;;
83807;SDS011;73824;40.292;17.998;2024-03-23T05:15:03;17.88;;;7.88;;
83807;SDS011;73824;40.292;17.998;2024-03-23T05:17:30;16.20;;;7.18;;
83807;SDS011;73824;40.292;17.998;2024-03-23T05:19:57;15.07;;;7.27;;
83807;SDS011;73824;40.292;17.998;2024-03-23T05:22:22;13.65;;;6.55;;
83807;SDS011;73824;40.292;17.998;2024-03-23T05:24:48;16.13;;;7.27;;
83807;SDS011;73824;40.292;17.998;2024-03-23T05:27:13;16.53;;;6.50;;
83807;SDS011;73824;40.292;17.998;2024-03-23T05:29:39;14.63;;;6.50;;
83807;SDS011;73824;40.292;17.998;2024-03-23T05:32:05;15.27;;;7.10;;
83807;SDS011;73824;40.292;17.998;2024-03-23T05:34:31;14.90;;;6.80;;
83807;SDS011;73824;40.292;17.998;2024-03-23T05:36:56;15.53;;;7.40;;
83807;SDS011;73824;40.292;17.998;2024-03-23T05:39:22;17.58;;;8.77;;
83807;SDS011;73824;40.292;17.998;2024-03-23T05:41:48;18.93;;;9.07;;
83807;SDS011;73824;40.292;17.998;2024-03-23T05:44:13;17.77;;;7.75;;
83807;SDS011;73824;40.292;17.998;2024-03-23T05:46:40;16.30;;;7.83;;
83807;SDS011;73824;40.292;17.998;2024-03-23T05:49:06;17.50;;;9.07;;
83807;SDS011;73824;40.292;17.998;2024-03-23T05:51:31;15.27;;;8.00;;
83807;SDS011;73824;40.292;17.998;2024-03-23T05:53:57;16.45;;;8.27;;
83807;SDS011;73824;40.292;17.998;2024-03-23T05:56:22;15.90;;;8.40;;
83807;SDS011;73824;40.292;17.998;2024-03-23T05:58:48;16.80;;;7.68;;
83807;SDS011;73824;40.292;17.998;2024-03-23T06:01:19;17.50;;;6.60;;
83807;SDS011;73824;40.292;17.998;2024-03-23T06:03:57;14.63;;;6.43;;
83807;SDS011;73824;40.292;17.998;2024-03-23T06:06:23;13.00;;;6.03;;
83807;SDS011;73824;40.292;17.998;2024-03-23T06:08:49;14.63;;;6.47;;
83807;SDS011;73824;40.292;17.998;2024-03-23T06:11:15;10.43;;;5.07;;
83807;SDS011;73824;40.292;17.998;2024-03-23T06:13:43;11.95;;;6.40;;
83807;SDS011;73824;40.292;17.998;2024-03-23T06:16:09;13.17;;;5.90;;
83807;SDS011;73824;40.292;17.998;2024-03-23T06:18:37;12.90;;;6.35;;
83807;SDS011;73824;40.292;17.998;2024-03-23T06:21:03;13.20;;;5.88;;
83807;SDS011;73824;40.292;17.998;2024-03-23T06:23:28;11.52;;;6.40;;
83807;SDS011;73824;40.292;17.998;2024-03-23T06:25:54;10.55;;;6.00;;
83807;SDS011;73824;40.292;17.998;2024-03-23T06:28:19;10.40;;;5.65;;
83807;SDS011;73824;40.292;17.998;2024-03-23T06:30:46;11.75;;;6.53;;
83807;SDS011;73824;40.292;17.998;2024-03-23T06:33:12;11.90;;;6.67;;
83807;SDS011;73824;40.292;17.998;2024-03-23T06:35:38;10.82;;;6.68;;
83807;SDS011;73824;40.292;17.998;2024-03-23T06:38:03;15.50;;;8.20;;
83807;SDS011;73824;40.292;17.998;2024-03-23T06:40:29;11.57;;;7.35;;
83807;SDS011;73824;40.292;17.998;2024-03-23T06:42:55;14.40;;;8.13;;
83807;SDS011;73824;40.292;17.998;2024-03-23T06:45:20;13.13;;;7.47;;
83807;SDS011;73824;40.292;17.998;2024-03-23T06:47:48;16.17;;;7.32;;
83807;SDS011;73824;40.292;17.998;2024-03-23T06:50:15;9.65;;;6.72;;
83807;SDS011;73824;40.292;17.998;2024-03-23T06:52:40;10.63;;;6.80;;
83807;SDS011;73824;40.292;17.998;2024-03-23T06:55:06;11.43;;;7.32;;
83807;SDS011;73824;40.292;17.998;2024-03-23T06:57:32;10.00;;;6.83;;
83807;SDS011;73824;40.292;17.998;2024-03-23T06:59:57;11.80;;;7.43;;
83807;SDS011;73824;40.292;17.998;2024-03-23T07:02:23;13.20;;;7.53;;
83807;SDS011;73824;40.292;17.998;2024-03-23T07:04:48;11.23;;;7.60;;
83807;SDS011;73824;40.292;17.998;2024-03-23T07:07:14;12.77;;;7.35;;
83807;SDS011;73824;40.292;17.998;2024-03-23T07:09:39;12.50;;;7.20;;
83807;SDS011;73824;40.292;17.998;2024-03-23T07:12:05;11.83;;;8.03;;
83807;SDS011;73824;40.292;17.998;2024-03-23T07:14:31;10.43;;;7.03;;
83807;SDS011;73824;40.292;17.998;2024-03-23T07:16:56;11.17;;;7.13;;
83807;SDS011;73824;40.292;17.998;2024-03-23T07:19:22;11.57;;;7.53;;
83807;SDS011;73824;40.292;17.998;2024-03-23T07:21:49;13.10;;;8.05;;
83807;SDS011;73824;40.292;17.998;2024-03-23T07:24:15;13.07;;;8.80;;
83807;SDS011;73824;40.292;17.998;2024-03-23T07:26:40;11.07;;;8.00;;
83807;SDS011;73824;40.292;17.998;2024-03-23T07:29:06;12.00;;;8.07;;
83807;SDS011;73824;40.292;17.998;2024-03-23T07:31:32;11.90;;;8.43;;
83807;SDS011;73824;40.292;17.998;2024-03-23T07:33:58;12.80;;;8.88;;
83807;SDS011;73824;40.292;17.998;2024-03-23T07:36:23;11.73;;;7.63;;
83807;SDS011;73824;40.292;17.998;2024-03-23T07:38:49;9.98;;;7.80;;
83807;SDS011;73824;40.292;17.998;2024-03-23T07:41:17;12.15;;;8.68;;
83807;SDS011;73824;40.292;17.998;2024-03-23T07:43:44;12.93;;;9.00;;
83807;SDS011;73824;40.292;17.998;2024-03-23T07:46:10;10.90;;;8.35;;
83807;SDS011;73824;40.292;17.998;2024-03-23T07:48:37;11.55;;;8.27;;
83807;SDS011;73824;40.292;17.998;2024-03-23T07:51:21;11.90;;;8.80;;
83807;SDS011;73824;40.292;17.998;2024-03-23T07:53:47;12.38;;;9.10;;
83807;SDS011;73824;40.292;17.998;2024-03-23T07:56:14;12.50;;;8.23;;
83807;SDS011;73824;40.292;17.998;2024-03-23T07:58:40;12.68;;;9.00;;
83807;SDS011;73824;40.292;17.998;2024-03-23T08:01:13;12.27;;;8.18;;
83807;SDS011;73824;40.292;17.998;2024-03-23T08:03:41;11.97;;;8.80;;
83807;SDS011;73824;40.292;17.998;2024-03-23T08:06:14;11.23;;;8.35;;
83807;SDS011;73824;40.292;17.998;2024-03-23T08:08:40;12.20;;;9.43;;
83807;SDS011;73824;40.292;17.998;2024-03-23T08:11:08;11.50;;;8.20;;
83807;SDS011;73824;40.292;17.998;2024-03-23T08:13:34;12.05;;;8.73;;
83807;SDS011;73824;40.292;17.998;2024-03-23T08:16:00;12.70;;;7.80;;
83807;SDS011;73824;40.292;17.998;2024-03-23T08:18:28;12.02;;;8.45;;
83807;SDS011;73824;40.292;17.998;2024-03-23T08:21:03;13.57;;;8.40;;
83807;SDS011;73824;40.292;17.998;2024-03-23T08:23:31;12.50;;;8.13;;
83807;SDS011;73824;40.292;17.998;2024-03-23T08:26:02;13.10;;;7.90;;
83807;SDS011;73824;40.292;17.998;2024-03-23T08:28:28;13.52;;;7.88;;
83807;SDS011;73824;40.292;17.998;2024-03-23T08:30:54;14.82;;;7.90;;
83807;SDS011;73824;40.292;17.998;2024-03-23T08:33:20;12.80;;;7.20;;
83807;SDS011;73824;40.292;17.998;2024-03-23T08:35:53;14.40;;;8.50;;
83807;SDS011;73824;40.292;17.998;2024-03-23T08:38:25;12.57;;;7.72;;
83807;SDS011;73824;40.292;17.998;2024-03-23T08:41:01;13.90;;;8.10;;
83807;SDS011;73824;40.292;17.998;2024-03-23T08:43:28;10.70;;;7.25;;
83807;SDS011;73824;40.292;17.998;2024-03-23T08:46:03;11.40;;;6.83;;
83807;SDS011;73824;40.292;17.998;2024-03-23T08:48:32;12.27;;;7.75;;
83807;SDS011;73824;40.292;17.998;2024-03-23T08:51:01;12.23;;;7.30;;
83807;SDS011;73824;40.292;17.998;2024-03-23T08:53:31;11.80;;;7.00;;
83807;SDS011;73824;40.292;17.998;2024-03-23T08:55:57;14.27;;;7.33;;
83807;SDS011;73824;40.292;17.998;2024-03-23T08:58:23;13.23;;;7.65;;
83807;SDS011;73824;40.292;17.998;2024-03-23T09:00:50;11.70;;;7.90;;
83807;SDS011;73824;40.292;17.998;2024-03-23T09:03:21;14.98;;;8.73;;
83807;SDS011;73824;40.292;17.998;2024-03-23T09:05:47;12.03;;;6.00;;
83807;SDS011;73824;40.292;17.998;2024-03-23T09:08:14;12.32;;;6.00;;
83807;SDS011;73824;40.292;17.998;2024-03-23T09:10:40;11.38;;;6.45;;
83807;SDS011;73824;40.292;17.998;2024-03-23T09:13:06;11.17;;;5.93;;
83807;SDS011;73824;40.292;17.998;2024-03-23T09:15:35;10.60;;;6.50;;
83807;SDS011;73824;40.292;17.998;2024-03-23T09:18:02;11.10;;;7.07;;
83807;SDS011;73824;40.292;17.998;2024-03-23T09:20:35;11.57;;;6.37;;
83807;SDS011;73824;40.292;17.998;2024-03-23T09:23:00;13.40;;;8.43;;
83807;SDS011;73824;40.292;17.998;2024-03-23T09:25:26;11.33;;;6.53;;
83807;SDS011;73824;40.292;17.998;2024-03-23T09:27:51;9.52;;;5.65;;
83807;SDS011;73824;40.292;17.998;2024-03-23T09:30:17;11.30;;;6.00;;
83807;SDS011;73824;40.292;17.998;2024-03-23T09:32:46;10.98;;;5.40;;
83807;SDS011;73824;40.292;17.998;2024-03-23T09:35:11;11.30;;;5.60;;
83807;SDS011;73824;40.292;17.998;2024-03-23T09:37:38;9.50;;;5.50;;
83807;SDS011;73824;40.292;17.998;2024-03-23T09:40:05;11.25;;;5.25;;
83807;SDS011;73824;40.292;17.998;2024-03-23T09:42:34;9.48;;;5.47;;
83807;SDS011;73824;40.292;17.998;2024-03-23T09:45:00;11.17;;;5.60;;
83807;SDS011;73824;40.292;17.998;2024-03-23T09:47:26;9.32;;;5.90;;
83807;SDS011;73824;40.292;17.998;2024-03-23T09:49:52;10.02;;;5.72;;
83807;SDS011;73824;40.292;17.998;2024-03-23T09:52:18;10.73;;;5.83;;
83807;SDS011;73824;40.292;17.998;2024-03-23T09:54:44;11.13;;;5.75;;
83807;SDS011;73824;40.292;17.998;2024-03-23T09:57:10;10.85;;;6.05;;
83807;SDS011;73824;40.292;17.998;2024-03-23T09:59:35;8.23;;;5.03;;
83807;SDS011;73824;40.292;17.998;2024-03-23T10:02:01;7.30;;;4.10;;
83807;SDS011;73824;40.292;17.998;2024-03-23T10:04:37;7.43;;;4.00;;
83807;SDS011;73824;40.292;17.998;2024-03-23T10:07:12;9.52;;;4.25;;
83807;SDS011;73824;40.292;17.998;2024-03-23T10:09:44;11.05;;;5.45;;
83807;SDS011;73824;40.292;17.998;2024-03-23T10:12:10;10.70;;;5.47;;
83807;SDS011;73824;40.292;17.998;2024-03-23T10:14:38;8.88;;;4.65;;
83807;SDS011;73824;40.292;17.998;2024-03-23T10:17:17;10.15;;;4.82;;
83807;SDS011;73824;40.292;17.998;2024-03-23T10:19:48;8.75;;;4.93;;
83807;SDS011;73824;40.292;17.998;2024-03-23T10:22:17;8.17;;;4.30;;
83807;SDS011;73824;40.292;17.998;2024-03-23T10:24:46;9.80;;;4.45;;
83807;SDS011;73824;40.292;17.998;2024-03-23T10:27:16;9.63;;;4.40;;
83807;SDS011;73824;40.292;17.998;2024-03-23T10:29:44;12.63;;;4.28;;
83807;SDS011;73824;40.292;17.998;2024-03-23T10:32:14;9.70;;;4.65;;
83807;SDS011;73824;40.292;17.998;2024-03-23T10:34:40;12.67;;;4.60;;
83807;SDS011;73824;40.292;17.998;2024-03-23T10:37:06;9.45;;;4.50;;
83807;SDS011;73824;40.292;17.998;2024-03-23T10:39:42;10.52;;;4.38;;
83807;SDS011;73824;40.292;17.998;2024-03-23T10:42:08;9.10;;;4.65;;
83807;SDS011;73824;40.292;17.998;2024-03-23T10:44:37;8.87;;;3.80;;
83807;SDS011;73824;40.292;17.998;2024-03-23T10:47:04;10.18;;;3.78;;
83807;SDS011;73824;40.292;17.998;2024-03-23T10:49:31;9.02;;;3.95;;
83807;SDS011;73824;40.292;17.998;2024-03-23T10:52:01;9.80;;;3.80;;
83807;SDS011;73824;40.292;17.998;2024-03-23T10:54:29;7.28;;;3.33;;
83807;SDS011;73824;40.292;17.998;2024-03-23T10:56:57;10.47;;;4.00;;
83807;SDS011;73824;40.292;17.998;2024-03-23T10:59:29;10.60;;;3.28;;
83807;SDS011;73824;40.292;17.998;2024-03-23T11:01:57;9.07;;;3.10;;
83807;SDS011;73824;40.292;17.998;2024-03-23T11:04:31;7.78;;;3.05;;
83807;SDS011;73824;40.292;17.998;2024-03-23T11:07:46;10.20;;;3.47;;
83807;SDS011;73824;40.292;17.998;2024-03-23T11:09:53;8.60;;;3.00;;
83807;SDS011;73824;40.292;17.998;2024-03-23T11:14:48;9.18;;;3.25;;
83807;SDS011;73824;40.292;17.998;2024-03-23T11:17:18;7.85;;;3.13;;
83807;SDS011;73824;40.292;17.998;2024-03-23T11:25:13;10.48;;;4.13;;
83807;SDS011;73824;40.292;17.998;2024-03-23T11:27:46;9.30;;;3.22;;
83807;SDS011;73824;40.292;17.998;2024-03-23T11:30:16;9.60;;;3.88;;
83807;SDS011;73824;40.292;17.998;2024-03-23T11:32:47;7.82;;;3.10;;
83807;SDS011;73824;40.292;17.998;2024-03-23T11:38:02;10.20;;;2.95;;
83807;SDS011;73824;40.292;17.998;2024-03-23T11:40:28;9.23;;;3.20;;
83807;SDS011;73824;40.292;17.998;2024-03-23T11:42:55;10.32;;;2.95;;
83807;SDS011;73824;40.292;17.998;2024-03-23T11:45:24;8.88;;;2.90;;
83807;SDS011;73824;40.292;17.998;2024-03-23T11:48:06;9.00;;;2.80;;
83807;SDS011;73824;40.292;17.998;2024-03-23T11:50:36;7.75;;;3.08;;
83807;SDS011;73824;40.292;17.998;2024-03-23T11:53:07;8.05;;;3.20;;
83807;SDS011;73824;40.292;17.998;2024-03-23T11:55:51;9.00;;;3.30;;
83807;SDS011;73824;40.292;17.998;2024-03-23T11:58:18;9.32;;;3.55;;
83807;SDS011;73824;40.292;17.998;2024-03-23T12:01:00;8.30;;;3.20;;
83807;SDS011;73824;40.292;17.998;2024-03-23T12:03:30;10.20;;;3.03;;
83807;SDS011;73824;40.292;17.998;2024-03-23T12:05:59;9.32;;;2.92;;
83807;SDS011;73824;40.292;17.998;2024-03-23T12:11:11;8.45;;;3.10;;
83807;SDS011;73824;40.292;17.998;2024-03-23T12:13:41;9.20;;;3.40;;
83807;SDS011;73824;40.292;17.998;2024-03-23T12:16:18;8.73;;;3.38;;
83807;SDS011;73824;40.292;17.998;2024-03-23T12:18:48;8.88;;;2.72;;
83807;SDS011;73824;40.292;17.998;2024-03-23T12:21:17;9.60;;;3.25;;
83807;SDS011;73824;40.292;17.998;2024-03-23T12:23:43;7.65;;;2.85;;
83807;SDS011;73824;40.292;17.998;2024-03-23T12:26:11;7.23;;;3.00;;
83807;SDS011;73824;40.292;17.998;2024-03-23T12:28:37;8.18;;;2.85;;
83807;SDS011;73824;40.292;17.998;2024-03-23T12:31:04;7.78;;;3.38;;
83807;SDS011;73824;40.292;17.998;2024-03-23T12:33:30;9.07;;;2.88;;
83807;SDS011;73824;40.292;17.998;2024-03-23T12:35:57;8.17;;;2.90;;
83807;SDS011;73824;40.292;17.998;2024-03-23T12:38:25;7.55;;;2.90;;
83807;SDS011;73824;40.292;17.998;2024-03-23T12:40:51;7.20;;;3.15;;
83807;SDS011;73824;40.292;17.998;2024-03-23T12:43:20;8.80;;;2.80;;
83807;SDS011;73824;40.292;17.998;2024-03-23T12:45:49;7.20;;;2.80;;
83807;SDS011;73824;40.292;17.998;2024-03-23T12:48:15;8.18;;;2.60;;
83807;SDS011;73824;40.292;17.998;2024-03-23T12:50:47;8.45;;;3.00;;
83807;SDS011;73824;40.292;17.998;2024-03-23T12:53:15;9.13;;;2.83;;
83807;SDS011;73824;40.292;17.998;2024-03-23T12:55:42;7.05;;;2.70;;
83807;SDS011;73824;40.292;17.998;2024-03-23T12:58:08;9.57;;;3.05;;
83807;SDS011;73824;40.292;17.998;2024-03-23T13:00:36;7.93;;;2.97;;
83807;SDS011;73824;40.292;17.998;2024-03-23T13:03:02;8.80;;;3.10;;
83807;SDS011;73824;40.292;17.998;2024-03-23T13:05:29;9.07;;;3.10;;
83807;SDS011;73824;40.292;17.998;2024-03-23T13:07:55;8.43;;;3.50;;
83807;SDS011;73824;40.292;17.998;2024-03-23T13:10:21;7.93;;;2.90;;
83807;SDS011;73824;40.292;17.998;2024-03-23T13:12:50;8.02;;;2.90;;
83807;SDS011;73824;40.292;17.998;2024-03-23T13:15:15;8.10;;;2.80;;
83807;SDS011;73824;40.292;17.998;2024-03-23T13:17:45;10.65;;;3.63;;
83807;SDS011;73824;40.292;17.998;2024-03-23T13:20:11;8.20;;;3.33;;
83807;SDS011;73824;40.292;17.998;2024-03-23T13:22:39;10.18;;;3.70;;
83807;SDS011;73824;40.292;17.998;2024-03-23T13:25:05;8.13;;;3.20;;
83807;SDS011;73824;40.292;17.998;2024-03-23T13:27:34;10.38;;;3.47;;
83807;SDS011;73824;40.292;17.998;2024-03-23T13:30:00;6.95;;;2.80;;
83807;SDS011;73824;40.292;17.998;2024-03-23T13:32:28;7.43;;;2.78;;
83807;SDS011;73824;40.292;17.998;2024-03-23T13:34:54;8.77;;;2.97;;
83807;SDS011;73824;40.292;17.998;2024-03-23T13:37:20;6.87;;;2.63;;
83807;SDS011;73824;40.292;17.998;2024-03-23T13:39:45;8.45;;;3.20;;
83807;SDS011;73824;40.292;17.998;2024-03-23T13:42:11;7.17;;;2.80;;
83807;SDS011;73824;40.292;17.998;2024-03-23T13:44:38;6.28;;;2.60;;
83807;SDS011;73824;40.292;17.998;2024-03-23T13:47:06;7.85;;;2.95;;
83807;SDS011;73824;40.292;17.998;2024-03-23T13:49:34;8.88;;;3.10;;
83807;SDS011;73824;40.292;17.998;2024-03-23T13:52:00;8.27;;;2.90;;
83807;SDS011;73824;40.292;17.998;2024-03-23T13:54:34;8.05;;;3.20;;
83807;SDS011;73824;40.292;17.998;2024-03-23T13:57:00;7.43;;;3.03;;
83807;SDS011;73824;40.292;17.998;2024-03-23T13:59:26;9.30;;;3.05;;
83807;SDS011;73824;40.292;17.998;2024-03-23T14:01:53;7.97;;;2.72;;
83807;SDS011;73824;40.292;17.998;2024-03-23T14:04:18;9.00;;;2.60;;
83807;SDS011;73824;40.292;17.998;2024-03-23T14:06:48;7.15;;;2.55;;
83807;SDS011;73824;40.292;17.998;2024-03-23T14:09:14;7.95;;;2.75;;
83807;SDS011;73824;40.292;17.998;2024-03-23T14:11:48;8.82;;;3.22;;
83807;SDS011;73824;40.292;17.998;2024-03-23T14:14:20;9.52;;;3.20;;
83807;SDS011;73824;40.292;17.998;2024-03-23T14:16:49;8.77;;;3.30;;
83807;SDS011;73824;40.292;17.998;2024-03-23T14:19:18;7.88;;;3.03;;
83807;SDS011;73824;40.292;17.998;2024-03-23T14:21:46;7.60;;;3.05;;
83807;SDS011;73824;40.292;17.998;2024-03-23T14:24:15;7.53;;;2.40;;
83807;SDS011;73824;40.292;17.998;2024-03-23T14:26:43;6.53;;;2.27;;
83807;SDS011;73824;40.292;17.998;2024-03-23T14:29:09;9.32;;;3.00;;
83807;SDS011;73824;40.292;17.998;2024-03-23T14:31:35;7.95;;;2.83;;
83807;SDS011;73824;40.292;17.998;2024-03-23T14:34:01;6.53;;;2.20;;
83807;SDS011;73824;40.292;17.998;2024-03-23T14:36:27;5.82;;;2.05;;
83807;SDS011;73824;40.292;17.998;2024-03-23T14:38:52;6.43;;;2.13;;
83807;SDS011;73824;40.292;17.998;2024-03-23T14:41:18;7.45;;;2.00;;
83807;SDS011;73824;40.292;17.998;2024-03-23T14:43:44;8.47;;;2.60;;
83807;SDS011;73824;40.292;17.998;2024-03-23T14:46:15;8.18;;;2.50;;
83807;SDS011;73824;40.292;17.998;2024-03-23T14:48:42;7.35;;;2.60;;
83807;SDS011;73824;40.292;17.998;2024-03-23T14:51:09;8.75;;;3.15;;
83807;SDS011;73824;40.292;17.998;2024-03-23T14:53:36;10.30;;;3.40;;
83807;SDS011;73824;40.292;17.998;2024-03-23T14:56:08;8.43;;;3.70;;
83807;SDS011;73824;40.292;17.998;2024-03-23T14:58:38;8.20;;;3.47;;
83807;SDS011;73824;40.292;17.998;2024-03-23T15:01:07;8.73;;;3.70;;
83807;SDS011;73824;40.292;17.998;2024-03-23T15:03:37;9.10;;;4.25;;
83807;SDS011;73824;40.292;17.998;2024-03-23T15:06:04;7.72;;;3.30;;
83807;SDS011;73824;40.292;17.998;2024-03-23T15:08:30;9.03;;;3.90;;
83807;SDS011;73824;40.292;17.998;2024-03-23T15:10:59;9.23;;;3.30;;
83807;SDS011;73824;40.292;17.998;2024-03-23T15:13:31;7.20;;;2.70;;
83807;SDS011;73824;40.292;17.998;2024-03-23T15:15:57;9.00;;;2.72;;
83807;SDS011;73824;40.292;17.998;2024-03-23T15:18:23;7.03;;;2.45;;
83807;SDS011;73824;40.292;17.998;2024-03-23T15:20:55;7.72;;;3.53;;
83807;SDS011;73824;40.292;17.998;2024-03-23T15:23:22;9.90;;;3.10;;
83807;SDS011;73824;40.292;17.998;2024-03-23T15:25:54;9.55;;;3.13;;
83807;SDS011;73824;40.292;17.998;2024-03-23T15:28:23;8.20;;;2.80;;
83807;SDS011;73824;40.292;17.998;2024-03-23T15:30:52;7.78;;;3.00;;